Home > Products > Valid Products > TAF

000
FTUS43 KBIS 301129
TAFMOT
TAF
KMOT 301129Z 3012/3112 09007KT P6SM SCT100
     FM302000 11011KT P6SM SCT090
     FM310600 11007KT P6SM OVC080=



000
FTUS43 KBIS 301129
TAFJMS
TAF
KJMS 301129Z 3012/3112 04010KT P6SM SKC
     FM302200 11007KT P6SM SKC
     FM310800 11007KT P6SM BKN080=



000
FTUS43 KBIS 301129
TAFBIS
TAF
KBIS 301129Z 3012/3112 09005KT P6SM FEW100
     FM301700 11010KT P6SM SCT100
     FM310600 12010KT P6SM VCSH OVC090=



000
FTUS43 KBIS 301129
TAFISN
TAF
KISN 301129Z 3012/3112 09007KT P6SM SCT090
     FM301500 13013G21KT P6SM SCT090
     FM310600 12010KT P6SM VCSH OVC080=



000
FTUS43 KBIS 301129
TAFDIK
TAF
KDIK 301129Z 3012/3112 12007KT P6SM FEW100
     FM301500 13016G23KT P6SM SCT090
     FM310600 13012G20KT P6SM VCSH OVC080=



000
FTUS43 KBIS 300532
TAFMOT
TAF
KMOT 300532Z 3006/3106 06006KT P6SM FEW100
     FM301300 10010KT P6SM BKN080=



000
FTUS43 KBIS 300532
TAFISN
TAF
KISN 300532Z 3006/3106 07006KT P6SM FEW100
     FM301300 11013KT P6SM BKN090=



000
FTUS43 KBIS 300532
TAFDIK
TAF
KDIK 300532Z 3006/3106 12007KT P6SM SKC
     FM301200 13014G20KT P6SM SCT090
     FM301900 14019G25KT P6SM BKN080=



000
FTUS43 KBIS 300532
TAFBIS
TAF
KBIS 300532Z 3006/3106 01006KT P6SM SKC
     FM301800 11011KT P6SM SCT080=



000
FTUS43 KBIS 300532
TAFJMS
TAF
KJMS 300532Z 3006/3106 04008KT P6SM SKC
     FM301800 06008KT P6SM FEW100
     FM302200 10006KT P6SM SCT090=



000
FTUS43 KBIS 300420 AAA
TAFJMS
TAF AMD
KJMS 300420Z 3004/3024 04010KT P6SM SKC
     FM301500 07008KT P6SM SCT200=



000
FTUS43 KBIS 292320
TAFBIS
TAF
KBIS 292320Z 3000/3024 03005KT P6SM SKC
     FM301500 10008KT P6SM SKC=



000
FTUS43 KBIS 292320
TAFMOT
TAF
KMOT 292320Z 3000/3024 35007KT P6SM SKC
     FM300900 09004KT P6SM SKC
     FM301700 12011KT P6SM SCT200=



000
FTUS43 KBIS 292320
TAFISN
TAF
KISN 292320Z 3000/3024 06004KT P6SM SKC
     FM301500 14015G22KT P6SM BKN200=



000
FTUS43 KBIS 292320
TAFDIK
TAF
KDIK 292320Z 3000/3024 03004KT P6SM SKC
     FM300400 11008KT P6SM SKC
     FM301400 14017G25KT P6SM BKN200=



000
FTUS43 KBIS 292320
TAFJMS
TAF
KJMS 292320Z 3000/3024 02015KT P6SM SKC
     FM300100 36007KT P6SM SKC
     FM301500 07008KT P6SM SCT200=



000
FTUS43 KBIS 292320
TAFBIS
TAF
KBIS 292320Z 3000/3024 03005KT P6SM SKC
     FM301500 10008KT P6SM SKC=



000
FTUS43 KBIS 292124 AAA
TAFDIK
TAF AMD
KDIK 292124Z 2921/3018 36004KT P6SM SCT050
     FM300600 11008KT P6SM SKC
     FM301400 14015G22KT P6SM BKN200
      AMD NOT SKED=



000
FTUS43 KBIS 291743
TAFDIK
TAF
KDIK 291743Z 2918/3018 01014KT P6SM BKN035
      TEMPO 2918/2919 BKN025
     FM292100 05004KT P6SM SCT050
     FM300600 11008KT P6SM SKC
     FM301400 14015G22KT P6SM BKN200=



000
FTUS43 KBIS 291743
TAFMOT
TAF
KMOT 291743Z 2918/3018 33014G22KT P6SM BKN035
      TEMPO 2918/2920 BKN028
     FM292200 35012KT P6SM SCT050
     FM300000 02007KT P6SM SKC
     FM300600 09004KT P6SM SKC
     FM301700 12011KT P6SM SCT200=



000
FTUS43 KBIS 291743
TAFBIS
TAF
KBIS 291743Z 2918/3018 01019G23KT P6SM SCT024 BKN040
     FM292100 36013G18KT P6SM SCT050
     FM300100 03005KT P6SM SKC
     FM300600 07003KT P6SM SKC
     FM301500 10008KT P6SM SKC=



000
FTUS43 KBIS 291743
TAFJMS
TAF
KJMS 291743Z 2918/3018 36020G28KT P6SM BKN035
      TEMPO 2918/2919 BKN025
     FM292200 36017G25KT P6SM SCT045
     FM300100 02007KT P6SM SKC
     FM301500 07008KT P6SM SCT200=



000
FTUS43 KBIS 291743
TAFISN
TAF
KISN 291743Z 2918/3018 01009KT P6SM BKN035
     FM292000 01008KT P6SM SCT050
     FM300200 06004KT P6SM SKC
     FM300700 10007KT P6SM SKC
     FM301500 14015G22KT P6SM BKN200=



000
FTUS43 KBIS 291610 AAA
TAFJMS
TAF AMD
KJMS 291610Z 2916/3012 36020G28KT P6SM BKN035
      TEMPO 2916/2918 BKN025
     FM292100 36017G25KT P6SM SCT045
     FM292200 36015G22KT P6SM SKC
     FM300100 02007KT P6SM SKC=



000
FTUS43 KBIS 291608 AAC
TAFDIK
TAF AMD
KDIK 291608Z 2916/3012 01014KT P6SM BKN028
     FM291800 02010KT P6SM BKN035
     FM292100 05004KT P6SM SCT050
     FM300600 11008KT P6SM SKC=



000
FTUS43 KBIS 291555 AAB
TAFMOT
TAF AMD
KMOT 291555Z 2916/3012 33014G22KT P6SM BKN035
     FM292100 35012KT P6SM SCT050
     FM300000 02007KT P6SM SKC
     FM300600 09004KT P6SM SKC=



000
FTUS43 KBIS 291553 AAA
TAFISN
TAF AMD
KISN 291553Z 2916/3012 01009KT P6SM BKN035
     FM292000 01008KT P6SM SCT050
     FM300200 06004KT P6SM SKC
     FM300700 10007KT P6SM SKC=



000
FTUS43 KBIS 291552 AAC
TAFBIS
TAF AMD
KBIS 291552Z 2916/3012 01019G23KT P6SM SCT024 BKN040
     FM292100 36013G18KT P6SM SCT050
     FM300100 03005KT P6SM SKC
     FM300600 07003KT P6SM SKC=



000
FTUS43 KBIS 291318 AAB
TAFDIK
TAF AMD
KDIK 291318Z 2913/3012 01014KT P6SM SCT018 BKN025
      TEMPO 2914/2916 BKN035
     FM291600 01012G16KT P6SM SCT040
     FM291800 02010KT P6SM SKC
     FM300000 05004KT P6SM SKC
     FM300600 11008KT P6SM SKC=



000
FTUS43 KBIS 291317 AAA
TAFMOT
TAF AMD
KMOT 291317Z 2913/3012 34016G21KT P6SM OVC025
      TEMPO 2914/2917 BKN035
     FM291700 34012G17KT P6SM SCT040
     FM291800 36011KT P6SM SKC
     FM300000 02007KT P6SM SKC
     FM300600 09004KT P6SM SKC=



000
FTUS43 KBIS 291317 AAA
TAFMOT
TAF AMD
KMOT 291317Z 2913/3012 34016G21KT P6SM OVC025
      TEMPO 2914/2917 BKN035
     FM291700 34012G17KT P6SM SCT040
     FM291800 36011KT P6SM SKC
     FM300000 02007KT P6SM SKC
     FM300600 09004KT P6SM SKC=



000
FTUS43 KBIS 291221 AAA
TAFDIK
TAF AMD
KDIK 291221Z 2912/3012 01014KT P6SM SCT010 BKN018 OVC025
      TEMPO 2914/2916 BKN035
     FM291600 01012G16KT P6SM SCT040
     FM291800 02010KT P6SM SKC
     FM300000 05004KT P6SM SKC
     FM300600 11008KT P6SM SKC=



000
FTUS43 KBIS 291139
TAFISN
TAF
KISN 291139Z 2912/3012 01012G17KT P6SM OVC028
      TEMPO 2913/2916 BKN035
     FM291600 01009KT P6SM SKC
     FM300200 06004KT P6SM SKC
     FM300700 10007KT P6SM SKC=



000
FTUS43 KBIS 291139
TAFJMS
TAF
KJMS 291139Z 2912/3012 01021G27KT P6SM OVC012
      TEMPO 2916/2918 SCT015 BKN025
     FM291800 36017G25KT P6SM SCT045
     FM292200 36015G22KT P6SM SKC
     FM300100 02007KT P6SM SKC=



000
FTUS43 KBIS 291139
TAFDIK
TAF
KDIK 291139Z 2912/3012 36014G20KT P6SM BKN005 OVC010
      TEMPO 2914/2916 BKN035
     FM291600 01012G16KT P6SM SCT040
     FM291800 02010KT P6SM SKC
     FM300000 05004KT P6SM SKC
     FM300600 11008KT P6SM SKC=



000
FTUS43 KBIS 291139
TAFMOT
TAF
KMOT 291139Z 2912/3012 34014G18KT P6SM SCT025 OVC035
      TEMPO 2914/2917 BKN035
     FM291700 34012G17KT P6SM SCT040
     FM291800 36011KT P6SM SKC
     FM300000 02007KT P6SM SKC
     FM300600 09004KT P6SM SKC=



000
FTUS43 KBIS 291139
TAFBIS
TAF
KBIS 291139Z 2912/3012 36015G21KT P6SM OVC011
      TEMPO 2915/2917 SCT012 BKN035
     FM291700 36014G19KT P6SM SCT030
     FM291900 36013G18KT P6SM SKC
     FM300100 03005KT P6SM SKC
     FM300600 07003KT P6SM SKC=



000
FTUS43 KBIS 290528
TAFBIS
TAF
KBIS 290528Z 2906/3006 36015G20KT P6SM BKN050
     FM290800 35018G28KT P6SM OVC020
     FM291600 36012KT P6SM SCT060
     FM300200 05005KT P6SM SKC=



000
FTUS43 KBIS 290528
TAFDIK
TAF
KDIK 290528Z 2906/3006 36016G22KT P6SM BKN070
     FM290800 36015G21KT P6SM OVC020
     FM291700 36010KT P6SM BKN060
     FM300300 10007KT P6SM FEW080=



000
FTUS43 KBIS 290528
TAFISN
TAF
KISN 290528Z 2906/3006 01018G27KT P6SM OVC020
     FM290900 36015G23KT P6SM SCT040
     FM291200 36011G17KT P6SM FEW080
     FM292200 05007KT P6SM FEW080=



000
FTUS43 KBIS 290528
TAFMOT
TAF
KMOT 290528Z 2906/3006 34018G27KT P6SM OVC020
     FM291000 33015G23KT P6SM SCT060
     FM292100 36010KT P6SM FEW080=



000
FTUS43 KBIS 290528
TAFJMS
TAF
KJMS 290528Z 2906/3006 36013KT P6SM OVC070
     FM290900 36020G29KT P6SM OVC020
     FM291700 36018G27KT P6SM SCT060
     FM300100 01008KT P6SM FEW070=



000
FTUS43 KBIS 290528
TAFBIS
TAF
KBIS 290528Z 2906/3006 36015G20KT P6SM BKN050
     FM290800 35018G28KT P6SM OVC020
     FM291600 36012KT P6SM SCT060
     FM300200 05005KT P6SM SKC=



000
FTUS43 KBIS 290315 AAA
TAFMOT
TAF AMD
KMOT 290315Z 2903/2924 33023G28KT P6SM OVC014
     FM291000 34015G26KT P6SM BKN014 BKN030
     FM291300 33014KT P6SM SCT030=



000
FTUS43 KBIS 290313 AAA
TAFDIK
TAF AMD
KDIK 290313Z 2903/2924 36008KT P6SM -RA VCTS FEW040CB BKN080
     FM290430 36013KT P6SM BKN040
     FM290600 36015G24KT P6SM BKN015
     FM291500 36006KT P6SM SCT030=



000
FTUS43 KBIS 282330
TAFISN
TAF
KISN 282330Z 2900/2924 02016KT P6SM VCSH FEW045 BKN110
      TEMPO 2900/2901 02020G30KT -SHRA BKN045
     FM290200 36018G26KT P6SM BKN020
     FM290800 35011KT P6SM SCT020=



000
FTUS43 KBIS 282330
TAFDIK
TAF
KDIK 282330Z 2900/2924 36013KT P6SM FEW110
     FM290600 36015G24KT P6SM BKN015
     FM291500 36006KT P6SM SCT030=



000
FTUS43 KBIS 282330
TAFJMS
TAF
KJMS 282330Z 2900/2924 30012KT P6SM FEW050 SCT080 SCT110
     FM290600 36014G19KT P6SM SCT020 BKN070
     FM290900 36018G26KT P6SM BKN020
     FM291500 36011KT P6SM SCT025=



000
FTUS43 KBIS 282330
TAFBIS
TAF
KBIS 282330Z 2900/2924 34012KT P6SM VCSH BKN060
     FM290100 30010KT P6SM SCT090 BKN150
     FM290700 36014G20KT P6SM BKN010
     FM291500 36014KT P6SM SCT025=



000
FTUS43 KBIS 282330
TAFMOT
TAF
KMOT 282330Z 2900/2924 34006KT P6SM SCT027 BKN050
     FM290300 34011KT P6SM VCSH BKN050
     FM290500 34015G26KT P6SM BKN015
     FM291100 33014KT P6SM SCT030=



000
FTUS43 KBIS 282100 AAB
TAFJMS
TAF AMD
KJMS 282100Z 2821/2918 19014KT P6SM VCTS SCT110CB
      TEMPO 2821/2823 VRB20G30KT 3SM TSRA BKN040CB
     FM290030 34011KT P6SM VCSH SCT025 BKN080
     FM290500 36014G19KT P6SM BKN010
     FM291500 36011KT P6SM SCT025=



000
FTUS43 KBIS 281852 AAA
TAFJMS
TAF AMD
KJMS 281852Z 2819/2918 22013G20KT P6SM VCTS BKN050CB
      TEMPO 2819/2823 VRB20G30KT 3SM TSRA BKN030CB
     FM290030 34011KT P6SM VCSH SCT025 BKN080
     FM290500 36014G19KT P6SM BKN010
     FM291500 36011KT P6SM SCT025=



000
FTUS43 KBIS 281739
TAFISN
TAF
KISN 281739Z 2818/2918 33014KT P6SM SCT025 BKN060
     FM281900 35015G20KT P6SM VCTS BKN050CB
      TEMPO 2820/2824 6SM -TSRA
     FM290200 01011KT P6SM SCT040
     FM290400 02010KT P6SM SCT020=



000
FTUS43 KBIS 281739
TAFBIS
TAF
KBIS 281739Z 2818/2918 25008KT P6SM FEW030 SCT070
     FM281900 32011KT P6SM VCTS BKN060CB
      TEMPO 2820/2823 VRB15G25KT 5SM -TSRA BKN050CB
     FM290000 33006KT P6SM BKN050
     FM290600 36008KT P6SM BKN010
     FM291500 36011KT P6SM SCT025=



000
FTUS43 KBIS 281739
TAFMOT
TAF
KMOT 281739Z 2818/2918 33011KT P6SM BKN020
     FM282000 33011KT P6SM VCSH BKN040
     FM290100 34011KT P6SM VCTS BKN050CB
     FM290400 36009KT P6SM BKN015
     FM291500 36006KT P6SM SCT030=



000
FTUS43 KBIS 281739
TAFDIK
TAF
KDIK 281739Z 2818/2918 29005KT P6SM SCT025
     FM282000 30010G20KT P6SM VCTS BKN040CB
     FM290000 01011KT P6SM SCT060
     FM290600 02009KT P6SM BKN010
     FM291500 36006KT P6SM SCT030=



000
FTUS43 KBIS 281739
TAFJMS
TAF
KJMS 281739Z 2818/2918 22013KT P6SM BKN035
     FM282000 30013G20KT P6SM VCTS BKN050CB
      TEMPO 2821/2824 VRB20G30KT 3SM TSRA BKN030CB
     FM290030 34011KT P6SM VCSH SCT025 BKN080
     FM290500 36014G19KT P6SM BKN010
     FM291500 36011KT P6SM SCT025=



000
FTUS43 KBIS 281615 AAC
TAFISN
TAF AMD
KISN 281615Z 2816/2912 25008KT P6SM BKN025
     FM281800 33014KT P6SM BKN040
     FM282100 35015G20KT P6SM VCSH BKN050
     FM290600 01011KT P6SM SCT035=



000
FTUS43 KBIS 281615 AAC
TAFISN
TAF AMD
KISN 281615Z 2816/2912 25008KT P6SM BKN025
     FM281800 33014KT P6SM BKN040
     FM282100 35015G20KT P6SM VCSH BKN050
     FM290600 01011KT P6SM SCT035=



000
FTUS43 KBIS 281614 AAB
TAFMOT
TAF AMD
KMOT 281614Z 2816/2912 26008KT P6SM BKN015
     FM281800 33011KT P6SM BKN030
     FM282000 35014G21KT P6SM VCSH BKN050
     FM290400 34011KT P6SM SCT035 SCT100=



000
FTUS43 KBIS 281614 AAB
TAFMOT
TAF AMD
KMOT 281614Z 2816/2912 26008KT P6SM BKN015
     FM281800 33011KT P6SM BKN030
     FM282000 35014G21KT P6SM VCSH BKN050
     FM290400 34011KT P6SM SCT035 SCT100=



000
FTUS43 KBIS 281431 AAC
TAFBIS
TAF AMD
KBIS 281431Z 2815/2912 24005KT P6SM BKN012
     FM281600 25008KT P6SM SCT035 SCT070
     FM281900 28011KT P6SM SCT050 BKN070
     FM282200 32011KT P6SM VCSH BKN060
     FM290800 36013G18KT P6SM OVC035=



000
FTUS43 KBIS 281358 AAB
TAFDIK
TAF AMD
KDIK 281358Z 2814/2912 29005KT P6SM FEW010
     FM281800 31011KT P6SM BKN050
     FM282100 30010G20KT P6SM VCSH BKN050 OVC070
     FM290700 36011KT P6SM SCT015 OVC035=



000
FTUS43 KBIS 281358 AAB
TAFDIK
TAF AMD
KDIK 281358Z 2814/2912 29005KT P6SM FEW010
     FM281800 31011KT P6SM BKN050
     FM282100 30010G20KT P6SM VCSH BKN050 OVC070
     FM290700 36011KT P6SM SCT015 OVC035=



000
FTUS43 KBIS 281326 AAA
TAFMOT
TAF AMD
KMOT 281326Z 2813/2912 10007KT 5SM BR OVC005
     FM281500 26008KT P6SM FEW006 BKN050
     FM281800 33011KT P6SM VCSH BKN070
     FM282300 35014G21KT P6SM VCSH BKN070
     FM290600 34011KT P6SM SCT035 SCT100=



000
FTUS43 KBIS 281305 AAB
TAFISN
TAF AMD
KISN 281305Z 2813/2912 VRB04KT P6SM SCT010
     FM281500 27008KT P6SM SCT020 BKN070
     FM281800 33014KT P6SM VCSH BKN050
     FM282200 35015G20KT P6SM VCSH BKN050
     FM290600 01011KT P6SM SCT035=



000
FTUS43 KBIS 281259 AAA
TAFJMS
TAF AMD
KJMS 281259Z 2813/2912 14006KT P6SM BKN060
     FM281500 22011KT P6SM SCT040
     FM282100 30013G20KT P6SM VCTS BKN050CB
     FM290300 34011KT P6SM VCSH SCT025 BKN080
     FM290500 36014G19KT P6SM VCSH BKN025=



000
FTUS43 KBIS 281256 AAA
TAFDIK
TAF AMD
KDIK 281256Z 2813/2912 VRB03KT 6SM BR SCT002 BKN100
     FM281500 27010KT P6SM SCT010 BKN050
     FM281800 31011KT P6SM BKN060
     FM282100 30010G20KT P6SM VCSH BKN050 OVC070
     FM290700 36011KT P6SM SCT015 OVC035=



000
FTUS43 KBIS 281204 AAA
TAFISN
TAF AMD
KISN 281204Z 2812/2912 VRB04KT P6SM OVC015
      TEMPO 2812/2815 4SM BR SCT015 BKN035
     FM281500 27008KT P6SM SCT035 BKN070
     FM281800 33014KT P6SM VCSH BKN050
     FM282200 35015G20KT P6SM VCSH BKN050
     FM290600 01011KT P6SM SCT035=



000
FTUS43 KBIS 281121
TAFISN
TAF
KISN 281121Z 2812/2912 VRB04KT P6SM OVC015
      TEMPO 2813/2815 SCT015 BKN035
     FM281500 27008KT P6SM SCT035 BKN070
     FM281800 33014KT P6SM VCSH BKN050
     FM282200 35015G20KT P6SM VCSH BKN050
     FM290600 01011KT P6SM SCT035=



000
FTUS43 KBIS 281121
TAFMOT
TAF
KMOT 281121Z 2812/2912 10007KT 5SM BR OVC005
      TEMPO 2812/2814 3SM BR SCT004 OVC045
     FM281400 26008KT P6SM FEW006 BKN050
     FM281800 33011KT P6SM VCSH BKN070
     FM282300 35014G21KT P6SM VCSH BKN070
     FM290600 34011KT P6SM SCT035 SCT100=



000
FTUS43 KBIS 281121
TAFJMS
TAF
KJMS 281121Z 2812/2912 14006KT P6SM BKN060
     FM281500 22011KT P6SM SCT040
     FM282200 30013G20KT P6SM VCTS BKN050CB
     FM290300 34011KT P6SM VCSH SCT025 BKN080
     FM290500 36014G19KT P6SM VCSH BKN025=



000
FTUS43 KBIS 281121
TAFDIK
TAF
KDIK 281121Z 2812/2912 VRB03KT 2SM BR SCT002 BKN100
      TEMPO 2812/2814 1/2SM FG VV002
     FM281400 27010KT P6SM SCT002 BKN050
     FM281800 31011KT P6SM BKN060
     FM282100 30010G20KT P6SM VCSH BKN050 OVC070
     FM290700 36011KT P6SM SCT015 OVC035=



000
FTUS43 KBIS 281121
TAFBIS
TAF
KBIS 281121Z 2812/2912 VRB04KT P6SM FEW035 BKN100
     FM281400 25008KT P6SM FEW070 FEW300
     FM281900 28011KT P6SM SCT050 BKN070
     FM282200 32011KT P6SM VCSH BKN060
     FM290800 36013G18KT P6SM OVC035=



000
FTUS43 KBIS 281024 AAC
TAFMOT
TAF AMD
KMOT 281024Z 2810/2906 10007KT P6SM BKN035
      TEMPO 2810/2813 BKN007
     FM281500 27008KT P6SM BKN035
     FM281800 29009KT P6SM BKN050=



000
FTUS43 KBIS 280955 AAB
TAFISN
TAF AMD
KISN 280955Z 2810/2906 VRB04KT P6SM OVC030
      TEMPO 2810/2812 OVC017
     FM281800 33014KT P6SM BKN050
     FM282200 35015G20KT P6SM VCSH BKN050=



000
FTUS43 KBIS 280953 AAC
TAFBIS
TAF AMD
KBIS 280953Z 2810/2906 16006KT P6SM SCT035 OVC100
     FM281400 23012KT P6SM BKN035
     FM282100 30011KT P6SM VCSH BKN070
     FM290500 01011KT P6SM OVC035=



000
FTUS43 KBIS 280922 AAB
TAFMOT
TAF AMD
KMOT 280922Z 2809/2906 10007KT P6SM BKN035
     FM281500 27008KT P6SM BKN035
     FM281800 29009KT P6SM BKN050=



000
FTUS43 KBIS 280922 AAB
TAFMOT
TAF AMD
KMOT 280922Z 2809/2906 10007KT P6SM BKN035
     FM281500 27008KT P6SM BKN035
     FM281800 29009KT P6SM BKN050=



000
FTUS43 KBIS 280921 AAA
TAFISN
TAF AMD
KISN 280921Z 2809/2906 VRB04KT P6SM OVC030
     FM281800 33014KT P6SM BKN050=



000
FTUS43 KBIS 280853 AAB
TAFDIK
TAF AMD
KDIK 280853Z 2809/2906 VRB03KT 2SM BR SCT002 BKN100
      TEMPO 2809/2812 1/2SM FG VV002
     FM281500 29010KT P6SM BKN050=



000
FTUS43 KBIS 280847 AAA
TAFDIK
TAF AMD
KDIK 280847Z 2809/2906 VRB03KT 2SM BR SCT002 BKN100
     FM281500 29010KT P6SM BKN050=



000
FTUS43 KBIS 280752 AAB
TAFBIS
TAF AMD
KBIS 280752Z 2808/2906 10006KT P6SM OVC100
     FM280900 15008KT P6SM BKN030
     FM281400 23012KT P6SM BKN035=



000
FTUS43 KBIS 280752 AAB
TAFBIS
TAF AMD
KBIS 280752Z 2808/2906 10006KT P6SM OVC100
     FM280900 15008KT P6SM BKN030
     FM281400 23012KT P6SM BKN035=



000
FTUS43 KBIS 280751 AAA
TAFMOT
TAF AMD
KMOT 280751Z 2808/2906 10007KT P6SM BKN050
      TEMPO 2808/2809 -RA
     FM281000 10006KT 5SM BR OVC025
     FM281500 27008KT P6SM BKN035
     FM281800 29009KT P6SM BKN050=



000
FTUS43 KBIS 280751 AAA
TAFMOT
TAF AMD
KMOT 280751Z 2808/2906 10007KT P6SM BKN050
      TEMPO 2808/2809 -RA
     FM281000 10006KT 5SM BR OVC025
     FM281500 27008KT P6SM BKN035
     FM281800 29009KT P6SM BKN050=



000
FTUS43 KBIS 280536
TAFBIS
TAF
KBIS 280536Z 2806/2906 20006KT P6SM OVC100
     FM280800 15008KT P6SM BKN030
     FM281400 23012KT P6SM BKN035=



000
FTUS43 KBIS 280536
TAFBIS
TAF
KBIS 280536Z 2806/2906 20006KT P6SM OVC100
     FM280800 15008KT P6SM BKN030
     FM281400 23012KT P6SM BKN035=



000
FTUS43 KBIS 280536
TAFDIK
TAF
KDIK 280536Z 2806/2906 17006KT P6SM OVC100
     FM281000 18005KT 5SM BR BKN025
     FM281500 29010KT P6SM BKN050=



000
FTUS43 KBIS 280536
TAFJMS
TAF
KJMS 280536Z 2806/2906 12009KT P6SM -SHRA OVC080
     FM281000 14006KT P6SM SCT015 BKN040
     FM281500 19010KT P6SM SCT040
     FM281900 29013G20KT P6SM BKN100=



000
FTUS43 KBIS 280536
TAFISN
TAF
KISN 280536Z 2806/2906 VRB04KT P6SM OVC030
     FM281000 27007KT 5SM BR OVC025
     FM281800 33014KT P6SM BKN050=



000
FTUS43 KBIS 280536
TAFMOT
TAF
KMOT 280536Z 2806/2906 10007KT P6SM -SHRA OVC100
     FM280800 10006KT 5SM BR OVC025
     FM281500 27008KT P6SM BKN035
     FM281800 29009KT P6SM BKN050=



000
FTUS43 KBIS 280536
TAFMOT
TAF
KMOT 280536Z 2806/2906 10007KT P6SM -SHRA OVC100
     FM280800 10006KT 5SM BR OVC025
     FM281500 27008KT P6SM BKN035
     FM281800 29009KT P6SM BKN050=



000
FTUS43 KBIS 280536
TAFJMS
TAF
KJMS 280536Z 2806/2906 12009KT P6SM -SHRA OVC080
     FM281000 14006KT P6SM SCT015 BKN040
     FM281500 19010KT P6SM SCT040
     FM281900 29013G20KT P6SM BKN100=



000
FTUS43 KBIS 280536
TAFISN
TAF
KISN 280536Z 2806/2906 VRB04KT P6SM OVC030
     FM281000 27007KT 5SM BR OVC025
     FM281800 33014KT P6SM BKN050=



000
FTUS43 KBIS 280536
TAFDIK
TAF
KDIK 280536Z 2806/2906 17006KT P6SM OVC100
     FM281000 18005KT 5SM BR BKN025
     FM281500 29010KT P6SM BKN050=



000
FTUS43 KBIS 280248 AAA
TAFJMS
TAF AMD
KJMS 280248Z 2803/2824 10016G22KT P6SM -SHRA VCTS BKN100CB
     FM280600 13009KT P6SM -SHRA OVC080
     FM281000 14006KT 5SM BR SCT015 BKN040
     FM281500 19010KT P6SM SCT040
     FM281900 29013G20KT P6SM BKN100=



000
FTUS43 KBIS 280245 AAA
TAFMOT
TAF AMD
KMOT 280245Z 2803/2824 05007KT P6SM -SHRA OVC100
     FM280800 10006KT 3SM BR OVC020
     FM281500 27008KT P6SM BKN015
     FM281800 29009KT P6SM BKN050=



000
FTUS43 KBIS 280244 AAB
TAFBIS
TAF AMD
KBIS 280244Z 2803/2824 20006KT P6SM -SHRA OVC100
      TEMPO 2803/2804 5SM -TSRA BR OVC050CB
     FM280800 12008KT P6SM BKN030
     FM281400 23012KT P6SM BKN035=



000
FTUS43 KBIS 280244 AAB
TAFBIS
TAF AMD
KBIS 280244Z 2803/2824 20006KT P6SM -SHRA OVC100
      TEMPO 2803/2804 5SM -TSRA BR OVC050CB
     FM280800 12008KT P6SM BKN030
     FM281400 23012KT P6SM BKN035=



000
FTUS43 KBIS 280112 AAA
TAFDIK
TAF AMD
KDIK 280112Z 2801/2824 08011KT P6SM OVC100
     FM280600 14006KT 3SM BR OVC009
     FM281400 27006KT P6SM BKN015
     FM281800 31010KT P6SM BKN050=



000
FTUS43 KBIS 272337
TAFDIK
TAF
KDIK 272337Z 2800/2824 33014G21KT 4SM RA BR VCTS SCT040CB OVC050
     FM280300 16011KT P6SM SCT035 BKN090
     FM280600 14006KT 3SM BR OVC009
     FM281400 27006KT P6SM BKN015
     FM281800 31010KT P6SM BKN050=



000
FTUS43 KBIS 272337
TAFBIS
TAF
KBIS 272337Z 2800/2824 15015KT P6SM SCT090 SCT200
     FM280200 13011KT P6SM -SHRA VCTS OVC060CB
      TEMPO 2802/2805 5SM -SHRA BR OVC035
     FM280800 12008KT P6SM BKN025
     FM281400 23012KT P6SM BKN035=



000
FTUS43 KBIS 272337
TAFJMS
TAF
KJMS 272337Z 2800/2824 06007KT P6SM SCT090
     FM280400 13009KT 5SM -SHRA BR OVC080
     FM281000 14006KT 5SM BR SCT015 BKN040
     FM281500 19010KT P6SM SCT040
     FM281900 29013G20KT P6SM BKN100=



000
FTUS43 KBIS 272337
TAFISN
TAF
KISN 272337Z 2800/2824 13009KT P6SM VCTS FEW060CB BKN100
     FM280300 12005KT P6SM -SHRA SCT050 BKN080
     FM280500 13005KT 5SM BR BKN010 OVC025
     FM281000 27007KT P6SM OVC025
     FM281800 33014KT P6SM BKN050=



000
FTUS43 KBIS 272337
TAFMOT
TAF
KMOT 272337Z 2800/2824 09015KT P6SM VCTS SCT080CB SCT120
     FM280300 09007KT 4SM -SHRA OVC025
     FM280600 10006KT 2SM BR OVC009
     FM281500 27008KT P6SM BKN015
     FM281800 29009KT P6SM BKN050=



000
FTUS43 KBIS 272102 AAB
TAFMOT
TAF AMD
KMOT 272102Z 2721/2818 08013G18KT P6SM VCTS SCT090CB SCT200
      TEMPO 2722/2723 VRB15G25KT 4SM -TSRA BKN050CB
     FM280400 09007KT 4SM -SHRA VCTS BKN025CB
     FM280800 10006KT 2SM SHRA BR OVC009
     FM281500 27008KT P6SM BKN015=



000
FTUS43 KBIS 272101 AAB
TAFJMS
TAF AMD
KJMS 272101Z 2721/2818 06007KT P6SM SCT120 BKN200
     FM280100 13007KT P6SM SCT090
     FM280400 13009KT 3SM -SHRA BR BKN025
     FM281000 14006KT 5SM BR BKN015=



000
FTUS43 KBIS 271914 AAA
TAFMOT
TAF AMD
KMOT 271914Z 2719/2818 09008KT P6SM SCT110
     FM272000 11009KT P6SM VCTS SCT070CB
      TEMPO 2720/2723 VRB15G25KT 4SM -TSRA BKN050CB
     FM280400 09007KT 4SM -SHRA VCTS BKN025CB
     FM280800 10006KT 2SM SHRA BR OVC009
     FM281500 27008KT P6SM BKN015=



000
FTUS43 KBIS 271913 AAA
TAFJMS
TAF AMD
KJMS 271913Z 2719/2818 12006KT P6SM VCTS SCT070CB
      TEMPO 2719/2722 5SM -TSRA BKN050CB
     FM280100 13007KT P6SM SCT090
     FM280400 13009KT 3SM -SHRA BR BKN025
     FM281000 14006KT 5SM BR BKN015=



000
FTUS43 KBIS 271850 AAA
TAFISN
TAF AMD
KISN 271850Z 2719/2818 13010KT P6SM VCTS BKN070CB
      TEMPO 2719/2723 VRB15G25KT 4SM -TSRA BKN050CB
     FM280200 VRB04KT 3SM -SHRA BKN025 OVC050
     FM280600 13005KT 2SM -SHRA BR BKN010
     FM281500 27007KT P6SM BKN025=



000
FTUS43 KBIS 271730
TAFJMS
TAF
KJMS 271730Z 2718/2818 31008KT P6SM FEW110
     FM271900 12006KT P6SM VCTS SCT070CB
      TEMPO 2720/2722 5SM -TSRA BKN050CB
     FM280100 13007KT P6SM SCT090
     FM280400 13009KT 3SM -SHRA BR BKN025
     FM281000 14006KT 5SM BR BKN015=



000
FTUS43 KBIS 271730
TAFMOT
TAF
KMOT 271730Z 2718/2818 09008KT P6SM SCT110
     FM272000 11009KT P6SM VCTS SCT070CB
     FM280400 09007KT 4SM -SHRA VCTS BKN025CB
     FM280800 10006KT 2SM SHRA BR OVC009
     FM281500 27008KT P6SM BKN015=



000
FTUS43 KBIS 271730
TAFDIK
TAF
KDIK 271730Z 2718/2818 15011KT P6SM SCT060
     FM271900 15014G19KT P6SM VCTS BKN070CB
      TEMPO 2720/2724 VRB15G25KT 2SM TSRA BKN040CB
     FM280300 16011KT 5SM -SHRA VCTS BKN035 OVC060CB
     FM280600 14006KT 3SM BR OVC009
     FM281400 27006KT P6SM BKN015=



000
FTUS43 KBIS 271730
TAFISN
TAF
KISN 271730Z 2718/2818 14009KT P6SM FEW080 SCT200
     FM272000 13010KT P6SM VCTS BKN070CB
      TEMPO 2721/2724 VRB15G25KT 4SM -TSRA BKN050CB
     FM280200 VRB04KT 3SM -SHRA BKN025 OVC050
     FM280600 13005KT 2SM -SHRA BR BKN010
     FM281500 27007KT P6SM BKN025=



000
FTUS43 KBIS 271730
TAFBIS
TAF
KBIS 271730Z 2718/2818 16011KT P6SM SCT200
     FM272000 15009KT P6SM SCT070
     FM280100 13011KT P6SM VCTS OVC060CB
      TEMPO 2803/2806 3SM -TSRA OVC035CB
     FM280800 12008KT P6SM BKN025
     FM281400 23012KT P6SM BKN035=



000
FTUS43 KBIS 271730
TAFDIK
TAF
KDIK 271730Z 2718/2818 15011KT P6SM SCT060
     FM271900 15014G19KT P6SM VCTS BKN070CB
      TEMPO 2720/2724 VRB15G25KT 2SM TSRA BKN040CB
     FM280300 16011KT 5SM -SHRA VCTS BKN035 OVC060CB
     FM280600 14006KT 3SM BR OVC009
     FM281400 27006KT P6SM BKN015=



000
FTUS43 KBIS 271730
TAFISN
TAF
KISN 271730Z 2718/2818 14009KT P6SM FEW080 SCT200
     FM272000 13010KT P6SM VCTS BKN070CB
      TEMPO 2721/2724 VRB15G25KT 4SM -TSRA BKN050CB
     FM280200 VRB04KT 3SM -SHRA BKN025 OVC050
     FM280600 13005KT 2SM -SHRA BR BKN010
     FM281500 27007KT P6SM BKN025=



000
FTUS43 KBIS 271730
TAFBIS
TAF
KBIS 271730Z 2718/2818 16011KT P6SM SCT200
     FM272000 15009KT P6SM SCT070
     FM280100 13011KT P6SM VCTS OVC060CB
      TEMPO 2803/2806 3SM -TSRA OVC035CB
     FM280800 12008KT P6SM BKN025
     FM281400 23012KT P6SM BKN035=



000
FTUS43 KBIS 271730
TAFMOT
TAF
KMOT 271730Z 2718/2818 09008KT P6SM SCT110
     FM272000 11009KT P6SM VCTS SCT070CB
     FM280400 09007KT 4SM -SHRA VCTS BKN025CB
     FM280800 10006KT 2SM SHRA BR OVC009
     FM281500 27008KT P6SM BKN015=



000
FTUS43 KBIS 271730
TAFJMS
TAF
KJMS 271730Z 2718/2818 31008KT P6SM FEW110
     FM271900 12006KT P6SM VCTS SCT070CB
      TEMPO 2720/2722 5SM -TSRA BKN050CB
     FM280100 13007KT P6SM SCT090
     FM280400 13009KT 3SM -SHRA BR BKN025
     FM281000 14006KT 5SM BR BKN015=



000
FTUS43 KBIS 271616 AAA
TAFJMS
TAF AMD
KJMS 271616Z 2716/2812 31008KT P6SM FEW110 FEW300
     FM271900 12006KT P6SM VCTS SCT060CB
      TEMPO 2720/2722 5SM -TSRA BKN050CB
     FM280100 13007KT P6SM SCT090
     FM280500 13009KT 5SM -SHRA BR BKN045 OVC080=



000
FTUS43 KBIS 271616 AAA
TAFJMS
TAF AMD
KJMS 271616Z 2716/2812 31008KT P6SM FEW110 FEW300
     FM271900 12006KT P6SM VCTS SCT060CB
      TEMPO 2720/2722 5SM -TSRA BKN050CB
     FM280100 13007KT P6SM SCT090
     FM280500 13009KT 5SM -SHRA BR BKN045 OVC080=



000
FTUS43 KBIS 271504 AAB
TAFBIS
TAF AMD
KBIS 271504Z 2715/2812 VRB03KT P6SM FEW300
     FM271800 16011KT P6SM SCT200
     FM280000 15009KT P6SM BKN120
     FM280200 13011KT P6SM VCTS OVC060CB
      TEMPO 2803/2806 3SM -TSRA OVC035CB
     FM280800 12008KT P6SM BKN025 OVC045=



000
FTUS43 KBIS 271504 AAB
TAFBIS
TAF AMD
KBIS 271504Z 2715/2812 VRB03KT P6SM FEW300
     FM271800 16011KT P6SM SCT200
     FM280000 15009KT P6SM BKN120
     FM280200 13011KT P6SM VCTS OVC060CB
      TEMPO 2803/2806 3SM -TSRA OVC035CB
     FM280800 12008KT P6SM BKN025 OVC045=



    US Dept of Commerce
    National Oceanic and Atmospheric Administration
    National Weather Service
    1325 East West Highway
    Silver Spring, MD 20910
    Page Author: NWS Internet Services Team
Disclaimer
Information Quality
Credits
Glossary
Privacy Policy
Freedom of Information Act (FOIA)
About Us
Career Opportunities